sensor_id;sensor_type;location;lat;lon;timestamp;P1;durP1;ratioP1;P2;durP2;ratioP2
68192;SDS011;55012;47.562;18.414;2022-09-23T00:00:32;15.65;;;7.15;;
68192;SDS011;55012;47.562;18.414;2022-09-23T00:02:58;13.68;;;7.22;;
68192;SDS011;55012;47.562;18.414;2022-09-23T00:05:25;13.93;;;6.50;;
68192;SDS011;55012;47.562;18.414;2022-09-23T00:07:51;15.73;;;7.63;;
68192;SDS011;55012;47.562;18.414;2022-09-23T00:10:16;14.57;;;7.50;;
68192;SDS011;55012;47.562;18.414;2022-09-23T00:12:42;12.38;;;6.68;;
68192;SDS011;55012;47.562;18.414;2022-09-23T00:15:08;14.90;;;7.63;;
68192;SDS011;55012;47.562;18.414;2022-09-23T00:17:35;15.15;;;7.90;;
68192;SDS011;55012;47.562;18.414;2022-09-23T00:20:01;16.63;;;8.38;;
68192;SDS011;55012;47.562;18.414;2022-09-23T00:22:26;18.80;;;9.70;;
68192;SDS011;55012;47.562;18.414;2022-09-23T00:24:51;26.25;;;12.43;;
68192;SDS011;55012;47.562;18.414;2022-09-23T00:27:17;28.17;;;14.00;;
68192;SDS011;55012;47.562;18.414;2022-09-23T00:29:45;29.85;;;14.35;;
68192;SDS011;55012;47.562;18.414;2022-09-23T00:32:10;27.85;;;12.68;;
68192;SDS011;55012;47.562;18.414;2022-09-23T00:34:36;29.50;;;14.00;;
68192;SDS011;55012;47.562;18.414;2022-09-23T00:37:01;27.10;;;12.95;;
68192;SDS011;55012;47.562;18.414;2022-09-23T00:39:27;24.42;;;11.65;;
68192;SDS011;55012;47.562;18.414;2022-09-23T00:41:52;26.45;;;12.63;;
68192;SDS011;55012;47.562;18.414;2022-09-23T00:47:11;17.38;;;8.40;;
68192;SDS011;55012;47.562;18.414;2022-09-23T00:49:46;17.52;;;8.60;;
68192;SDS011;55012;47.562;18.414;2022-09-23T00:52:17;21.20;;;10.40;;
68192;SDS011;55012;47.562;18.414;2022-09-23T00:54:47;19.02;;;10.10;;
68192;SDS011;55012;47.562;18.414;2022-09-23T00:57:16;21.98;;;9.98;;
68192;SDS011;55012;47.562;18.414;2022-09-23T00:59:44;19.83;;;8.48;;
68192;SDS011;55012;47.562;18.414;2022-09-23T01:02:10;16.85;;;7.68;;
68192;SDS011;55012;47.562;18.414;2022-09-23T01:04:38;13.77;;;7.60;;
68192;SDS011;55012;47.562;18.414;2022-09-23T01:07:04;18.02;;;8.80;;
68192;SDS011;55012;47.562;18.414;2022-09-23T01:09:30;14.80;;;7.68;;
68192;SDS011;55012;47.562;18.414;2022-09-23T01:17:33;15.60;;;7.88;;
68192;SDS011;55012;47.562;18.414;2022-09-23T01:31:36;22.17;;;10.98;;
68192;SDS011;55012;47.562;18.414;2022-09-23T01:34:12;20.70;;;9.57;;
68192;SDS011;55012;47.562;18.414;2022-09-23T01:36:46;21.48;;;10.68;;
68192;SDS011;55012;47.562;18.414;2022-09-23T01:39:22;23.42;;;10.13;;
68192;SDS011;55012;47.562;18.414;2022-09-23T01:42:05;22.45;;;9.60;;
68192;SDS011;55012;47.562;18.414;2022-09-23T01:47:22;21.73;;;10.50;;
68192;SDS011;55012;47.562;18.414;2022-09-23T01:53:00;16.73;;;8.20;;
68192;SDS011;55012;47.562;18.414;2022-09-23T01:55:36;17.25;;;7.30;;
68192;SDS011;55012;47.562;18.414;2022-09-23T01:58:10;13.90;;;7.05;;
68192;SDS011;55012;47.562;18.414;2022-09-23T02:00:48;14.30;;;7.00;;
68192;SDS011;55012;47.562;18.414;2022-09-23T02:03:50;15.50;;;7.60;;
68192;SDS011;55012;47.562;18.414;2022-09-23T02:06:28;15.27;;;7.47;;
68192;SDS011;55012;47.562;18.414;2022-09-23T02:08:58;15.52;;;7.30;;
68192;SDS011;55012;47.562;18.414;2022-09-23T02:11:26;16.65;;;7.82;;
68192;SDS011;55012;47.562;18.414;2022-09-23T02:14:01;13.90;;;7.53;;
68192;SDS011;55012;47.562;18.414;2022-09-23T02:16:36;14.38;;;7.32;;
68192;SDS011;55012;47.562;18.414;2022-09-23T02:19:12;17.10;;;7.95;;
68192;SDS011;55012;47.562;18.414;2022-09-23T02:21:48;15.98;;;7.70;;
68192;SDS011;55012;47.562;18.414;2022-09-23T02:24:20;15.63;;;7.78;;
68192;SDS011;55012;47.562;18.414;2022-09-23T02:26:54;18.95;;;8.73;;
68192;SDS011;55012;47.562;18.414;2022-09-23T02:46:13;19.33;;;8.55;;
68192;SDS011;55012;47.562;18.414;2022-09-23T02:51:28;19.67;;;9.20;;
68192;SDS011;55012;47.562;18.414;2022-09-23T02:53:58;18.17;;;8.98;;
68192;SDS011;55012;47.562;18.414;2022-09-23T02:56:27;16.83;;;8.77;;
68192;SDS011;55012;47.562;18.414;2022-09-23T02:58:53;16.48;;;8.65;;
68192;SDS011;55012;47.562;18.414;2022-09-23T03:01:33;20.30;;;8.98;;
68192;SDS011;55012;47.562;18.414;2022-09-23T03:15:49;16.73;;;8.95;;
68192;SDS011;55012;47.562;18.414;2022-09-23T03:18:27;17.08;;;8.40;;
68192;SDS011;55012;47.562;18.414;2022-09-23T03:21:04;18.70;;;9.23;;
68192;SDS011;55012;47.562;18.414;2022-09-23T03:23:34;16.58;;;8.27;;
68192;SDS011;55012;47.562;18.414;2022-09-23T03:26:04;18.17;;;8.68;;
68192;SDS011;55012;47.562;18.414;2022-09-23T03:28:37;19.08;;;8.50;;
68192;SDS011;55012;47.562;18.414;2022-09-23T03:31:07;19.13;;;8.23;;
68192;SDS011;55012;47.562;18.414;2022-09-23T03:33:32;17.05;;;8.10;;
68192;SDS011;55012;47.562;18.414;2022-09-23T03:36:01;19.30;;;8.55;;
68192;SDS011;55012;47.562;18.414;2022-09-23T03:38:50;16.90;;;8.48;;
68192;SDS011;55012;47.562;18.414;2022-09-23T03:41:27;22.63;;;9.25;;
68192;SDS011;55012;47.562;18.414;2022-09-23T03:44:02;19.95;;;9.27;;
68192;SDS011;55012;47.562;18.414;2022-09-23T03:46:27;19.98;;;8.85;;
68192;SDS011;55012;47.562;18.414;2022-09-23T03:49:13;16.25;;;8.43;;
68192;SDS011;55012;47.562;18.414;2022-09-23T03:51:41;20.95;;;10.07;;
68192;SDS011;55012;47.562;18.414;2022-09-23T03:54:07;18.25;;;8.90;;
68192;SDS011;55012;47.562;18.414;2022-09-23T03:56:32;17.23;;;9.35;;
68192;SDS011;55012;47.562;18.414;2022-09-23T03:58:58;18.95;;;8.95;;
68192;SDS011;55012;47.562;18.414;2022-09-23T04:01:23;19.08;;;10.48;;
68192;SDS011;55012;47.562;18.414;2022-09-23T04:03:50;22.83;;;11.10;;
68192;SDS011;55012;47.562;18.414;2022-09-23T04:06:16;17.70;;;8.82;;
68192;SDS011;55012;47.562;18.414;2022-09-23T04:08:42;17.98;;;8.93;;
68192;SDS011;55012;47.562;18.414;2022-09-23T04:11:08;18.73;;;9.15;;
68192;SDS011;55012;47.562;18.414;2022-09-23T04:13:34;20.80;;;8.95;;
68192;SDS011;55012;47.562;18.414;2022-09-23T04:15:59;19.13;;;8.93;;
68192;SDS011;55012;47.562;18.414;2022-09-23T04:18:25;19.88;;;9.48;;
68192;SDS011;55012;47.562;18.414;2022-09-23T04:20:55;22.48;;;9.85;;
68192;SDS011;55012;47.562;18.414;2022-09-23T04:23:22;22.02;;;10.40;;
68192;SDS011;55012;47.562;18.414;2022-09-23T04:25:48;19.48;;;9.98;;
68192;SDS011;55012;47.562;18.414;2022-09-23T04:28:14;20.88;;;10.65;;
68192;SDS011;55012;47.562;18.414;2022-09-23T04:30:40;22.48;;;10.57;;
68192;SDS011;55012;47.562;18.414;2022-09-23T04:33:08;26.30;;;10.40;;
68192;SDS011;55012;47.562;18.414;2022-09-23T04:35:35;20.55;;;10.55;;
68192;SDS011;55012;47.562;18.414;2022-09-23T04:38:02;27.25;;;11.55;;
68192;SDS011;55012;47.562;18.414;2022-09-23T04:40:27;26.52;;;11.27;;
68192;SDS011;55012;47.562;18.414;2022-09-23T04:42:52;23.40;;;10.98;;
68192;SDS011;55012;47.562;18.414;2022-09-23T04:45:18;20.90;;;9.85;;
68192;SDS011;55012;47.562;18.414;2022-09-23T04:47:43;24.00;;;9.68;;
68192;SDS011;55012;47.562;18.414;2022-09-23T04:50:09;21.65;;;10.35;;
68192;SDS011;55012;47.562;18.414;2022-09-23T04:52:34;21.85;;;9.82;;
68192;SDS011;55012;47.562;18.414;2022-09-23T04:55:00;20.42;;;10.15;;
68192;SDS011;55012;47.562;18.414;2022-09-23T04:57:26;21.58;;;10.68;;
68192;SDS011;55012;47.562;18.414;2022-09-23T04:59:52;21.38;;;10.00;;
68192;SDS011;55012;47.562;18.414;2022-09-23T05:02:20;22.33;;;10.43;;
68192;SDS011;55012;47.562;18.414;2022-09-23T05:04:45;22.35;;;10.23;;
68192;SDS011;55012;47.562;18.414;2022-09-23T05:07:11;21.02;;;9.82;;
68192;SDS011;55012;47.562;18.414;2022-09-23T05:09:36;21.33;;;9.13;;
68192;SDS011;55012;47.562;18.414;2022-09-23T05:12:02;21.08;;;9.10;;
68192;SDS011;55012;47.562;18.414;2022-09-23T05:14:28;21.13;;;9.07;;
68192;SDS011;55012;47.562;18.414;2022-09-23T05:16:54;22.77;;;10.25;;
68192;SDS011;55012;47.562;18.414;2022-09-23T05:19:19;25.13;;;12.25;;
68192;SDS011;55012;47.562;18.414;2022-09-23T05:21:45;20.27;;;10.13;;
68192;SDS011;55012;47.562;18.414;2022-09-23T05:24:10;22.98;;;9.85;;
68192;SDS011;55012;47.562;18.414;2022-09-23T05:26:36;18.30;;;9.82;;
68192;SDS011;55012;47.562;18.414;2022-09-23T05:29:02;25.30;;;11.32;;
68192;SDS011;55012;47.562;18.414;2022-09-23T05:31:28;24.02;;;11.75;;
68192;SDS011;55012;47.562;18.414;2022-09-23T05:33:58;25.05;;;11.80;;
68192;SDS011;55012;47.562;18.414;2022-09-23T05:36:25;22.58;;;11.93;;
68192;SDS011;55012;47.562;18.414;2022-09-23T05:38:52;27.42;;;13.40;;
68192;SDS011;55012;47.562;18.414;2022-09-23T05:41:19;28.23;;;12.35;;
68192;SDS011;55012;47.562;18.414;2022-09-23T05:43:47;31.15;;;13.82;;
68192;SDS011;55012;47.562;18.414;2022-09-23T05:46:19;30.42;;;13.13;;
68192;SDS011;55012;47.562;18.414;2022-09-23T05:48:50;27.13;;;12.75;;
68192;SDS011;55012;47.562;18.414;2022-09-23T05:51:17;27.23;;;11.90;;
68192;SDS011;55012;47.562;18.414;2022-09-23T05:53:44;19.00;;;10.20;;
68192;SDS011;55012;47.562;18.414;2022-09-23T05:56:12;27.95;;;12.57;;
68192;SDS011;55012;47.562;18.414;2022-09-23T05:58:39;27.15;;;12.57;;
68192;SDS011;55012;47.562;18.414;2022-09-23T06:01:11;29.65;;;13.82;;
68192;SDS011;55012;47.562;18.414;2022-09-23T06:03:38;28.80;;;12.95;;
68192;SDS011;55012;47.562;18.414;2022-09-23T06:06:05;28.65;;;13.13;;
68192;SDS011;55012;47.562;18.414;2022-09-23T06:08:31;29.23;;;13.73;;
68192;SDS011;55012;47.562;18.414;2022-09-23T06:11:01;27.92;;;14.00;;
68192;SDS011;55012;47.562;18.414;2022-09-23T06:13:31;27.15;;;12.52;;
68192;SDS011;55012;47.562;18.414;2022-09-23T06:15:57;30.33;;;14.40;;
68192;SDS011;55012;47.562;18.414;2022-09-23T06:18:22;31.45;;;15.85;;
68192;SDS011;55012;47.562;18.414;2022-09-23T06:20:48;34.53;;;18.73;;
68192;SDS011;55012;47.562;18.414;2022-09-23T06:23:13;39.38;;;20.20;;
68192;SDS011;55012;47.562;18.414;2022-09-23T06:25:39;36.97;;;19.48;;
68192;SDS011;55012;47.562;18.414;2022-09-23T06:28:04;33.60;;;18.25;;
68192;SDS011;55012;47.562;18.414;2022-09-23T06:30:36;31.55;;;16.77;;
68192;SDS011;55012;47.562;18.414;2022-09-23T06:33:01;27.08;;;14.27;;
68192;SDS011;55012;47.562;18.414;2022-09-23T06:35:27;25.60;;;13.63;;
68192;SDS011;55012;47.562;18.414;2022-09-23T06:37:53;23.35;;;12.07;;
68192;SDS011;55012;47.562;18.414;2022-09-23T06:40:19;23.00;;;12.43;;
68192;SDS011;55012;47.562;18.414;2022-09-23T06:42:46;18.85;;;10.05;;
68192;SDS011;55012;47.562;18.414;2022-09-23T06:45:12;19.90;;;10.85;;
68192;SDS011;55012;47.562;18.414;2022-09-23T06:47:39;19.35;;;9.90;;
68192;SDS011;55012;47.562;18.414;2022-09-23T06:50:06;19.17;;;10.43;;
68192;SDS011;55012;47.562;18.414;2022-09-23T06:52:33;20.77;;;10.07;;
68192;SDS011;55012;47.562;18.414;2022-09-23T06:54:59;20.45;;;10.40;;
68192;SDS011;55012;47.562;18.414;2022-09-23T06:57:27;19.35;;;10.30;;
68192;SDS011;55012;47.562;18.414;2022-09-23T06:59:57;23.27;;;10.68;;
68192;SDS011;55012;47.562;18.414;2022-09-23T07:02:23;19.05;;;10.00;;
68192;SDS011;55012;47.562;18.414;2022-09-23T07:04:49;22.98;;;10.88;;
68192;SDS011;55012;47.562;18.414;2022-09-23T07:07:15;19.77;;;10.80;;
68192;SDS011;55012;47.562;18.414;2022-09-23T07:09:42;20.98;;;11.00;;
68192;SDS011;55012;47.562;18.414;2022-09-23T07:12:08;19.58;;;10.98;;
68192;SDS011;55012;47.562;18.414;2022-09-23T07:14:34;19.85;;;10.45;;
68192;SDS011;55012;47.562;18.414;2022-09-23T07:16:59;16.95;;;9.93;;
68192;SDS011;55012;47.562;18.414;2022-09-23T07:19:25;22.00;;;11.55;;
68192;SDS011;55012;47.562;18.414;2022-09-23T07:21:50;21.25;;;11.63;;
68192;SDS011;55012;47.562;18.414;2022-09-23T07:24:16;19.35;;;10.40;;
68192;SDS011;55012;47.562;18.414;2022-09-23T07:26:42;16.77;;;9.77;;
68192;SDS011;55012;47.562;18.414;2022-09-23T07:29:10;17.85;;;10.10;;
68192;SDS011;55012;47.562;18.414;2022-09-23T07:31:37;18.58;;;10.50;;
68192;SDS011;55012;47.562;18.414;2022-09-23T07:34:03;19.60;;;10.02;;
68192;SDS011;55012;47.562;18.414;2022-09-23T07:36:30;15.23;;;9.05;;
68192;SDS011;55012;47.562;18.414;2022-09-23T07:38:56;16.65;;;9.15;;
68192;SDS011;55012;47.562;18.414;2022-09-23T07:41:27;17.52;;;9.48;;
68192;SDS011;55012;47.562;18.414;2022-09-23T07:43:55;15.15;;;8.77;;
68192;SDS011;55012;47.562;18.414;2022-09-23T07:46:24;16.83;;;9.57;;
68192;SDS011;55012;47.562;18.414;2022-09-23T07:48:51;14.48;;;8.55;;
68192;SDS011;55012;47.562;18.414;2022-09-23T07:51:24;20.98;;;10.60;;
68192;SDS011;55012;47.562;18.414;2022-09-23T07:53:53;16.08;;;9.23;;
68192;SDS011;55012;47.562;18.414;2022-09-23T07:56:20;16.40;;;9.40;;
68192;SDS011;55012;47.562;18.414;2022-09-23T07:58:48;16.02;;;9.00;;
68192;SDS011;55012;47.562;18.414;2022-09-23T08:01:24;16.05;;;9.25;;
68192;SDS011;55012;47.562;18.414;2022-09-23T08:03:51;15.00;;;8.82;;
68192;SDS011;55012;47.562;18.414;2022-09-23T08:06:17;17.10;;;9.13;;
68192;SDS011;55012;47.562;18.414;2022-09-23T08:08:42;15.32;;;8.98;;
68192;SDS011;55012;47.562;18.414;2022-09-23T08:11:08;16.23;;;9.55;;
68192;SDS011;55012;47.562;18.414;2022-09-23T08:13:37;15.10;;;8.65;;
68192;SDS011;55012;47.562;18.414;2022-09-23T08:16:02;17.38;;;9.55;;
68192;SDS011;55012;47.562;18.414;2022-09-23T08:18:28;17.17;;;9.85;;
68192;SDS011;55012;47.562;18.414;2022-09-23T08:20:54;16.80;;;10.13;;
68192;SDS011;55012;47.562;18.414;2022-09-23T08:23:20;17.10;;;9.27;;
68192;SDS011;55012;47.562;18.414;2022-09-23T08:25:45;15.82;;;9.00;;
68192;SDS011;55012;47.562;18.414;2022-09-23T08:28:15;16.98;;;9.65;;
68192;SDS011;55012;47.562;18.414;2022-09-23T08:30:46;17.77;;;8.88;;
68192;SDS011;55012;47.562;18.414;2022-09-23T08:33:13;15.25;;;9.63;;
68192;SDS011;55012;47.562;18.414;2022-09-23T08:35:39;16.95;;;9.50;;
68192;SDS011;55012;47.562;18.414;2022-09-23T08:38:05;17.40;;;10.48;;
68192;SDS011;55012;47.562;18.414;2022-09-23T08:40:41;17.73;;;9.63;;
68192;SDS011;55012;47.562;18.414;2022-09-23T08:43:16;16.67;;;9.43;;
68192;SDS011;55012;47.562;18.414;2022-09-23T08:45:48;16.33;;;9.23;;
68192;SDS011;55012;47.562;18.414;2022-09-23T08:48:17;14.93;;;8.68;;
68192;SDS011;55012;47.562;18.414;2022-09-23T08:50:52;16.83;;;9.35;;
68192;SDS011;55012;47.562;18.414;2022-09-23T08:53:24;17.60;;;9.70;;
68192;SDS011;55012;47.562;18.414;2022-09-23T08:55:57;15.45;;;9.55;;
68192;SDS011;55012;47.562;18.414;2022-09-23T08:58:51;15.73;;;8.75;;
68192;SDS011;55012;47.562;18.414;2022-09-23T09:03:45;15.20;;;9.27;;
68192;SDS011;55012;47.562;18.414;2022-09-23T09:06:20;15.93;;;9.48;;
68192;SDS011;55012;47.562;18.414;2022-09-23T09:08:50;15.25;;;9.23;;
68192;SDS011;55012;47.562;18.414;2022-09-23T09:11:21;14.87;;;9.53;;
68192;SDS011;55012;47.562;18.414;2022-09-23T09:13:56;18.33;;;9.30;;
68192;SDS011;55012;47.562;18.414;2022-09-23T09:19:46;14.35;;;8.75;;
68192;SDS011;55012;47.562;18.414;2022-09-23T09:22:19;18.42;;;9.13;;
68192;SDS011;55012;47.562;18.414;2022-09-23T09:24:54;14.73;;;8.85;;
68192;SDS011;55012;47.562;18.414;2022-09-23T09:27:25;13.52;;;8.50;;
68192;SDS011;55012;47.562;18.414;2022-09-23T09:29:51;15.45;;;9.52;;
68192;SDS011;55012;47.562;18.414;2022-09-23T09:32:39;15.18;;;8.13;;
68192;SDS011;55012;47.562;18.414;2022-09-23T09:35:58;14.00;;;8.18;;
68192;SDS011;55012;47.562;18.414;2022-09-23T09:38:05;13.45;;;7.65;;
68192;SDS011;55012;47.562;18.414;2022-09-23T09:40:32;14.60;;;8.48;;
68192;SDS011;55012;47.562;18.414;2022-09-23T09:42:59;12.48;;;7.80;;
68192;SDS011;55012;47.562;18.414;2022-09-23T09:48:09;14.07;;;7.90;;
68192;SDS011;55012;47.562;18.414;2022-09-23T09:50:51;14.70;;;7.90;;
68192;SDS011;55012;47.562;18.414;2022-09-23T09:55:43;13.25;;;7.90;;
68192;SDS011;55012;47.562;18.414;2022-09-23T09:58:11;14.30;;;7.70;;
68192;SDS011;55012;47.562;18.414;2022-09-23T10:00:43;14.05;;;7.88;;
68192;SDS011;55012;47.562;18.414;2022-09-23T10:11:15;13.82;;;7.78;;
68192;SDS011;55012;47.562;18.414;2022-09-23T10:16:39;13.63;;;7.95;;
68192;SDS011;55012;47.562;18.414;2022-09-23T10:19:13;14.27;;;7.72;;
68192;SDS011;55012;47.562;18.414;2022-09-23T10:21:39;11.35;;;7.30;;
68192;SDS011;55012;47.562;18.414;2022-09-23T10:24:06;12.75;;;7.15;;
68192;SDS011;55012;47.562;18.414;2022-09-23T10:26:42;11.05;;;7.22;;
68192;SDS011;55012;47.562;18.414;2022-09-23T10:31:47;12.07;;;7.45;;
68192;SDS011;55012;47.562;18.414;2022-09-23T10:34:25;11.77;;;7.72;;
68192;SDS011;55012;47.562;18.414;2022-09-23T10:37:00;12.07;;;7.22;;
68192;SDS011;55012;47.562;18.414;2022-09-23T10:39:31;12.10;;;7.75;;
68192;SDS011;55012;47.562;18.414;2022-09-23T10:42:17;13.32;;;8.02;;
68192;SDS011;55012;47.562;18.414;2022-09-23T10:45:17;11.95;;;7.43;;
68192;SDS011;55012;47.562;18.414;2022-09-23T10:50:38;14.70;;;9.38;;
68192;SDS011;55012;47.562;18.414;2022-09-23T11:07:10;18.13;;;9.00;;
68192;SDS011;55012;47.562;18.414;2022-09-23T11:15:19;13.52;;;8.43;;
68192;SDS011;55012;47.562;18.414;2022-09-23T11:26:26;13.45;;;8.38;;
68192;SDS011;55012;47.562;18.414;2022-09-23T11:32:16;11.88;;;8.07;;
68192;SDS011;55012;47.562;18.414;2022-09-23T11:37:54;12.85;;;8.40;;
68192;SDS011;55012;47.562;18.414;2022-09-23T11:40:43;17.27;;;8.73;;
68192;SDS011;55012;47.562;18.414;2022-09-23T11:43:22;13.52;;;8.85;;
68192;SDS011;55012;47.562;18.414;2022-09-23T11:45:56;12.60;;;8.10;;
68192;SDS011;55012;47.562;18.414;2022-09-23T11:48:41;11.27;;;7.68;;
68192;SDS011;55012;47.562;18.414;2022-09-23T11:51:15;11.20;;;6.93;;
68192;SDS011;55012;47.562;18.414;2022-09-23T12:01:53;10.88;;;7.28;;
68192;SDS011;55012;47.562;18.414;2022-09-23T12:04:30;11.63;;;7.13;;
68192;SDS011;55012;47.562;18.414;2022-09-23T12:23:01;11.27;;;8.00;;
68192;SDS011;55012;47.562;18.414;2022-09-23T12:25:52;11.80;;;7.47;;
68192;SDS011;55012;47.562;18.414;2022-09-23T12:28:22;12.10;;;7.65;;
68192;SDS011;55012;47.562;18.414;2022-09-23T12:30:51;12.10;;;7.75;;
68192;SDS011;55012;47.562;18.414;2022-09-23T12:35:46;12.32;;;7.85;;
68192;SDS011;55012;47.562;18.414;2022-09-23T12:38:13;12.20;;;7.90;;
68192;SDS011;55012;47.562;18.414;2022-09-23T12:40:45;16.30;;;8.05;;
68192;SDS011;55012;47.562;18.414;2022-09-23T12:43:15;12.50;;;8.15;;
68192;SDS011;55012;47.562;18.414;2022-09-23T12:45:53;14.50;;;8.60;;
68192;SDS011;55012;47.562;18.414;2022-09-23T12:50:49;11.43;;;7.43;;
68192;SDS011;55012;47.562;18.414;2022-09-23T12:56:13;11.23;;;7.18;;
68192;SDS011;55012;47.562;18.414;2022-09-23T13:03:40;10.43;;;6.80;;
68192;SDS011;55012;47.562;18.414;2022-09-23T13:06:32;9.68;;;6.70;;
68192;SDS011;55012;47.562;18.414;2022-09-23T13:09:20;9.85;;;6.47;;
68192;SDS011;55012;47.562;18.414;2022-09-23T13:11:51;9.60;;;6.13;;
68192;SDS011;55012;47.562;18.414;2022-09-23T13:14:21;10.75;;;6.93;;
68192;SDS011;55012;47.562;18.414;2022-09-23T13:16:48;10.40;;;5.75;;
68192;SDS011;55012;47.562;18.414;2022-09-23T13:27:02;9.48;;;6.10;;
68192;SDS011;55012;47.562;18.414;2022-09-23T13:29:46;8.30;;;5.00;;
68192;SDS011;55012;47.562;18.414;2022-09-23T13:32:19;8.25;;;4.38;;
68192;SDS011;55012;47.562;18.414;2022-09-23T13:42:49;6.78;;;4.95;;
68192;SDS011;55012;47.562;18.414;2022-09-23T13:45:20;7.50;;;4.03;;
68192;SDS011;55012;47.562;18.414;2022-09-23T13:47:48;6.95;;;4.60;;
68192;SDS011;55012;47.562;18.414;2022-09-23T13:50:16;6.80;;;3.63;;
68192;SDS011;55012;47.562;18.414;2022-09-23T13:52:44;3.85;;;3.03;;
68192;SDS011;55012;47.562;18.414;2022-09-23T13:55:30;5.82;;;3.90;;
68192;SDS011;55012;47.562;18.414;2022-09-23T14:00:37;5.75;;;3.63;;
68192;SDS011;55012;47.562;18.414;2022-09-23T14:05:50;5.20;;;3.08;;
68192;SDS011;55012;47.562;18.414;2022-09-23T14:08:16;3.45;;;2.25;;
68192;SDS011;55012;47.562;18.414;2022-09-23T14:10:45;3.75;;;2.58;;
68192;SDS011;55012;47.562;18.414;2022-09-23T14:13:13;6.13;;;2.60;;
68192;SDS011;55012;47.562;18.414;2022-09-23T14:15:51;3.47;;;2.60;;
68192;SDS011;55012;47.562;18.414;2022-09-23T14:18:38;5.75;;;2.83;;
68192;SDS011;55012;47.562;18.414;2022-09-23T14:21:24;3.75;;;2.70;;
68192;SDS011;55012;47.562;18.414;2022-09-23T14:23:50;3.75;;;2.88;;
68192;SDS011;55012;47.562;18.414;2022-09-23T14:26:15;3.78;;;2.95;;
68192;SDS011;55012;47.562;18.414;2022-09-23T14:28:42;6.53;;;2.65;;
68192;SDS011;55012;47.562;18.414;2022-09-23T14:31:08;3.28;;;2.38;;
68192;SDS011;55012;47.562;18.414;2022-09-23T14:33:34;4.68;;;2.90;;
68192;SDS011;55012;47.562;18.414;2022-09-23T14:36:05;4.78;;;3.00;;
68192;SDS011;55012;47.562;18.414;2022-09-23T14:38:59;4.75;;;3.50;;
68192;SDS011;55012;47.562;18.414;2022-09-23T14:41:41;4.43;;;3.17;;
68192;SDS011;55012;47.562;18.414;2022-09-23T14:44:22;3.40;;;2.92;;
68192;SDS011;55012;47.562;18.414;2022-09-23T14:46:53;4.25;;;3.38;;
68192;SDS011;55012;47.562;18.414;2022-09-23T14:49:21;3.92;;;2.92;;
68192;SDS011;55012;47.562;18.414;2022-09-23T14:54:31;4.78;;;2.67;;
68192;SDS011;55012;47.562;18.414;2022-09-23T14:56:58;3.95;;;2.60;;
68192;SDS011;55012;47.562;18.414;2022-09-23T14:59:26;3.90;;;2.90;;
68192;SDS011;55012;47.562;18.414;2022-09-23T15:02:01;5.07;;;2.80;;
68192;SDS011;55012;47.562;18.414;2022-09-23T15:04:48;2.70;;;2.15;;
68192;SDS011;55012;47.562;18.414;2022-09-23T15:07:15;2.67;;;2.28;;
68192;SDS011;55012;47.562;18.414;2022-09-23T15:09:44;2.83;;;2.13;;
68192;SDS011;55012;47.562;18.414;2022-09-23T15:14:48;3.63;;;2.92;;
68192;SDS011;55012;47.562;18.414;2022-09-23T15:19:50;3.83;;;2.60;;
68192;SDS011;55012;47.562;18.414;2022-09-23T15:22:20;2.92;;;2.13;;
68192;SDS011;55012;47.562;18.414;2022-09-23T15:24:49;2.20;;;2.00;;
68192;SDS011;55012;47.562;18.414;2022-09-23T15:27:22;2.50;;;1.90;;
68192;SDS011;55012;47.562;18.414;2022-09-23T15:29:48;3.08;;;2.08;;
68192;SDS011;55012;47.562;18.414;2022-09-23T15:32:14;2.97;;;1.90;;
68192;SDS011;55012;47.562;18.414;2022-09-23T15:34:39;3.20;;;1.90;;
68192;SDS011;55012;47.562;18.414;2022-09-23T15:37:04;5.55;;;2.15;;
68192;SDS011;55012;47.562;18.414;2022-09-23T15:39:34;4.43;;;3.05;;
68192;SDS011;55012;47.562;18.414;2022-09-23T15:41:59;4.70;;;2.70;;
68192;SDS011;55012;47.562;18.414;2022-09-23T15:44:25;3.13;;;1.90;;
68192;SDS011;55012;47.562;18.414;2022-09-23T15:46:56;3.50;;;2.40;;
68192;SDS011;55012;47.562;18.414;2022-09-23T15:49:31;4.47;;;3.13;;
68192;SDS011;55012;47.562;18.414;2022-09-23T15:52:00;2.58;;;2.15;;
68192;SDS011;55012;47.562;18.414;2022-09-23T15:54:28;6.03;;;3.13;;
68192;SDS011;55012;47.562;18.414;2022-09-23T15:56:53;4.20;;;2.20;;
68192;SDS011;55012;47.562;18.414;2022-09-23T15:59:20;3.83;;;2.47;;
68192;SDS011;55012;47.562;18.414;2022-09-23T16:01:47;3.50;;;2.33;;
68192;SDS011;55012;47.562;18.414;2022-09-23T16:04:12;4.18;;;2.25;;
68192;SDS011;55012;47.562;18.414;2022-09-23T16:06:39;3.20;;;2.33;;
68192;SDS011;55012;47.562;18.414;2022-09-23T16:09:05;7.38;;;2.80;;
68192;SDS011;55012;47.562;18.414;2022-09-23T16:11:31;9.93;;;3.20;;
68192;SDS011;55012;47.562;18.414;2022-09-23T16:13:57;4.97;;;2.78;;
68192;SDS011;55012;47.562;18.414;2022-09-23T16:16:24;4.15;;;2.83;;
68192;SDS011;55012;47.562;18.414;2022-09-23T16:18:51;6.32;;;2.95;;
68192;SDS011;55012;47.562;18.414;2022-09-23T16:21:18;8.13;;;3.40;;
68192;SDS011;55012;47.562;18.414;2022-09-23T16:23:46;6.18;;;3.28;;
68192;SDS011;55012;47.562;18.414;2022-09-23T16:26:28;6.70;;;3.42;;
68192;SDS011;55012;47.562;18.414;2022-09-23T16:29:02;7.68;;;3.67;;
68192;SDS011;55012;47.562;18.414;2022-09-23T16:31:28;6.47;;;3.83;;
68192;SDS011;55012;47.562;18.414;2022-09-23T16:33:56;10.23;;;4.43;;
68192;SDS011;55012;47.562;18.414;2022-09-23T16:36:27;9.55;;;4.35;;
68192;SDS011;55012;47.562;18.414;2022-09-23T16:38:55;6.50;;;4.30;;
68192;SDS011;55012;47.562;18.414;2022-09-23T16:41:22;7.68;;;4.82;;
68192;SDS011;55012;47.562;18.414;2022-09-23T16:44:01;11.48;;;6.03;;
68192;SDS011;55012;47.562;18.414;2022-09-23T16:46:28;9.07;;;5.28;;
68192;SDS011;55012;47.562;18.414;2022-09-23T16:48:55;11.77;;;5.60;;
68192;SDS011;55012;47.562;18.414;2022-09-23T16:51:23;14.32;;;5.80;;
68192;SDS011;55012;47.562;18.414;2022-09-23T16:53:53;13.18;;;5.85;;
68192;SDS011;55012;47.562;18.414;2022-09-23T16:56:20;14.45;;;6.07;;
68192;SDS011;55012;47.562;18.414;2022-09-23T16:58:48;14.32;;;7.07;;
68192;SDS011;55012;47.562;18.414;2022-09-23T17:01:15;10.13;;;6.40;;
68192;SDS011;55012;47.562;18.414;2022-09-23T17:04:03;11.50;;;6.28;;
68192;SDS011;55012;47.562;18.414;2022-09-23T17:06:28;9.00;;;5.32;;
68192;SDS011;55012;47.562;18.414;2022-09-23T17:08:54;8.27;;;5.00;;
68192;SDS011;55012;47.562;18.414;2022-09-23T17:11:20;8.48;;;5.40;;
68192;SDS011;55012;47.562;18.414;2022-09-23T17:13:45;9.63;;;5.95;;
68192;SDS011;55012;47.562;18.414;2022-09-23T17:16:27;11.07;;;5.35;;
68192;SDS011;55012;47.562;18.414;2022-09-23T17:18:57;11.88;;;6.25;;
68192;SDS011;55012;47.562;18.414;2022-09-23T17:21:23;14.13;;;6.97;;
68192;SDS011;55012;47.562;18.414;2022-09-23T17:23:54;14.70;;;7.45;;
68192;SDS011;55012;47.562;18.414;2022-09-23T17:26:21;15.05;;;7.05;;
68192;SDS011;55012;47.562;18.414;2022-09-23T17:28:50;13.60;;;7.47;;
68192;SDS011;55012;47.562;18.414;2022-09-23T17:31:16;17.67;;;6.50;;
68192;SDS011;55012;47.562;18.414;2022-09-23T17:33:42;13.50;;;6.07;;
68192;SDS011;55012;47.562;18.414;2022-09-23T17:36:08;11.30;;;5.20;;
68192;SDS011;55012;47.562;18.414;2022-09-23T17:38:35;12.40;;;4.68;;
68192;SDS011;55012;47.562;18.414;2022-09-23T17:41:03;20.55;;;10.43;;